sensor_id;sensor_type;location;lat;lon;timestamp;temperature;humidity
1021;DHT22;499;42.648;23.270;2023-01-28T00:01:16;-0.30;68.10
1021;DHT22;499;42.648;23.270;2023-01-28T00:03:43;-0.30;65.80
1021;DHT22;499;42.648;23.270;2023-01-28T00:06:12;-0.20;64.80
1021;DHT22;499;42.648;23.270;2023-01-28T00:08:40;-0.30;63.90
1021;DHT22;499;42.648;23.270;2023-01-28T00:11:10;-0.20;64.80
1021;DHT22;499;42.648;23.270;2023-01-28T00:13:38;-0.50;64.50
1021;DHT22;499;42.648;23.270;2023-01-28T00:16:06;-0.50;64.50
1021;DHT22;499;42.648;23.270;2023-01-28T00:18:34;-0.60;65.10
1021;DHT22;499;42.648;23.270;2023-01-28T00:21:04;-0.30;68.10
1021;DHT22;499;42.648;23.270;2023-01-28T00:23:34;-0.60;70.00
1021;DHT22;499;42.648;23.270;2023-01-28T00:26:03;-0.20;70.10
1021;DHT22;499;42.648;23.270;2023-01-28T00:28:32;-0.50;69.20
1021;DHT22;499;42.648;23.270;2023-01-28T00:31:05;-0.60;67.20
1021;DHT22;499;42.648;23.270;2023-01-28T00:33:32;-0.40;69.30
1021;DHT22;499;42.648;23.270;2023-01-28T00:36:00;-0.40;67.90
1021;DHT22;499;42.648;23.270;2023-01-28T00:38:28;-0.40;67.00
1021;DHT22;499;42.648;23.270;2023-01-28T00:40:55;-0.40;65.90
1021;DHT22;499;42.648;23.270;2023-01-28T00:43:22;-0.30;67.30
1021;DHT22;499;42.648;23.270;2023-01-28T00:45:51;-0.30;67.90
1021;DHT22;499;42.648;23.270;2023-01-28T00:48:18;-0.50;64.50
1021;DHT22;499;42.648;23.270;2023-01-28T00:50:45;-0.50;64.50
1021;DHT22;499;42.648;23.270;2023-01-28T00:53:13;-0.50;66.70
1021;DHT22;499;42.648;23.270;2023-01-28T00:55:40;-0.50;67.80
1021;DHT22;499;42.648;23.270;2023-01-28T00:58:07;-0.60;66.40
1021;DHT22;499;42.648;23.270;2023-01-28T01:00:34;-0.70;69.00
1021;DHT22;499;42.648;23.270;2023-01-28T01:03:02;-0.70;70.80
1021;DHT22;499;42.648;23.270;2023-01-28T01:05:29;-0.70;70.00
1021;DHT22;499;42.648;23.270;2023-01-28T01:07:58;-0.60;70.90
1021;DHT22;499;42.648;23.270;2023-01-28T01:10:25;-0.60;69.80
1021;DHT22;499;42.648;23.270;2023-01-28T01:12:53;-0.50;69.40
1021;DHT22;499;42.648;23.270;2023-01-28T01:15:20;-0.50;69.70
1021;DHT22;499;42.648;23.270;2023-01-28T01:17:49;-0.40;69.30
1021;DHT22;499;42.648;23.270;2023-01-28T01:20:19;-0.60;67.60
1021;DHT22;499;42.648;23.270;2023-01-28T01:22:46;-1.10;67.90
1021;DHT22;499;42.648;23.270;2023-01-28T01:25:15;-0.80;69.00
1021;DHT22;499;42.648;23.270;2023-01-28T01:27:43;-0.70;71.20
1021;DHT22;499;42.648;23.270;2023-01-28T01:30:11;-0.70;71.70
1021;DHT22;499;42.648;23.270;2023-01-28T01:32:38;-0.70;69.40
1021;DHT22;499;42.648;23.270;2023-01-28T01:35:07;-0.60;70.50
1021;DHT22;499;42.648;23.270;2023-01-28T01:37:37;-0.50;70.60
1021;DHT22;499;42.648;23.270;2023-01-28T01:40:05;-0.40;69.30
1021;DHT22;499;42.648;23.270;2023-01-28T01:42:33;-0.50;67.60
1021;DHT22;499;42.648;23.270;2023-01-28T01:45:02;-0.60;67.80
1021;DHT22;499;42.648;23.270;2023-01-28T01:47:34;-0.60;68.60
1021;DHT22;499;42.648;23.270;2023-01-28T01:50:07;-0.50;69.20
1021;DHT22;499;42.648;23.270;2023-01-28T01:52:37;-0.40;68.20
1021;DHT22;499;42.648;23.270;2023-01-28T01:55:10;-0.40;69.30
1021;DHT22;499;42.648;23.270;2023-01-28T01:57:38;-0.40;67.20
1021;DHT22;499;42.648;23.270;2023-01-28T02:00:06;-0.40;66.50
1021;DHT22;499;42.648;23.270;2023-01-28T02:02:37;-0.60;66.00
1021;DHT22;499;42.648;23.270;2023-01-28T02:05:07;-0.50;66.90
1021;DHT22;499;42.648;23.270;2023-01-28T02:07:36;-0.40;67.00
1021;DHT22;499;42.648;23.270;2023-01-28T02:10:06;-0.70;69.00
1021;DHT22;499;42.648;23.270;2023-01-28T02:12:36;-0.60;69.10
1021;DHT22;499;42.648;23.270;2023-01-28T02:15:08;-0.30;69.40
1021;DHT22;499;42.648;23.270;2023-01-28T02:17:35;-0.40;69.30
1021;DHT22;499;42.648;23.270;2023-01-28T02:20:05;-0.10;67.30
1021;DHT22;499;42.648;23.270;2023-01-28T02:22:56;-0.50;64.50
1021;DHT22;499;42.648;23.270;2023-01-28T02:28:33;-0.70;66.60
1021;DHT22;499;42.648;23.270;2023-01-28T02:31:08;-0.30;69.10
1021;DHT22;499;42.648;23.270;2023-01-28T02:33:40;-0.40;68.70
1021;DHT22;499;42.648;23.270;2023-01-28T02:36:16;-0.50;68.90
1021;DHT22;499;42.648;23.270;2023-01-28T02:38:47;-0.90;69.00
1021;DHT22;499;42.648;23.270;2023-01-28T02:41:24;-0.60;71.20
1021;DHT22;499;42.648;23.270;2023-01-28T02:43:53;-0.70;71.10
1021;DHT22;499;42.648;23.270;2023-01-28T02:46:32;-0.50;71.00
1021;DHT22;499;42.648;23.270;2023-01-28T02:49:36;-0.50;69.20
1021;DHT22;499;42.648;23.270;2023-01-28T02:52:24;-0.60;69.10
1021;DHT22;499;42.648;23.270;2023-01-28T02:55:15;-0.50;68.00
1021;DHT22;499;42.648;23.270;2023-01-28T02:57:50;-0.50;66.80
1021;DHT22;499;42.648;23.270;2023-01-28T03:00:25;-0.40;66.40
1021;DHT22;499;42.648;23.270;2023-01-28T03:02:59;-0.40;65.50
1021;DHT22;499;42.648;23.270;2023-01-28T03:05:33;-0.50;62.30
1021;DHT22;499;42.648;23.270;2023-01-28T03:08:02;-0.40;62.20
1021;DHT22;499;42.648;23.270;2023-01-28T03:10:51;-0.70;64.10
1021;DHT22;499;42.648;23.270;2023-01-28T03:13:36;-0.70;65.10
1021;DHT22;499;42.648;23.270;2023-01-28T03:16:23;-0.60;66.00
1021;DHT22;499;42.648;23.270;2023-01-28T03:19:08;-0.60;65.10
1021;DHT22;499;42.648;23.270;2023-01-28T03:21:55;-0.70;63.70
1021;DHT22;499;42.648;23.270;2023-01-28T03:24:43;-0.70;64.30
1021;DHT22;499;42.648;23.270;2023-01-28T03:27:32;-0.50;65.60
1021;DHT22;499;42.648;23.270;2023-01-28T03:30:21;-0.70;65.10
1021;DHT22;499;42.648;23.270;2023-01-28T03:33:08;-0.60;66.00
1021;DHT22;499;42.648;23.270;2023-01-28T03:35:54;-0.50;65.40
1021;DHT22;499;42.648;23.270;2023-01-28T03:38:39;-0.80;64.20
1021;DHT22;499;42.648;23.270;2023-01-28T03:41:09;-0.50;65.00
1021;DHT22;499;42.648;23.270;2023-01-28T03:43:37;-0.90;64.20
1021;DHT22;499;42.648;23.270;2023-01-28T03:46:04;-0.70;66.60
1021;DHT22;499;42.648;23.270;2023-01-28T03:48:33;-0.90;67.80
1021;DHT22;499;42.648;23.270;2023-01-28T03:51:02;-0.70;68.30
1021;DHT22;499;42.648;23.270;2023-01-28T03:53:29;-0.70;65.70
1021;DHT22;499;42.648;23.270;2023-01-28T03:55:56;-0.80;63.70
1021;DHT22;499;42.648;23.270;2023-01-28T03:58:24;-0.70;64.30
1021;DHT22;499;42.648;23.270;2023-01-28T04:01:10;-0.40;63.90
1021;DHT22;499;42.648;23.270;2023-01-28T04:03:39;-0.80;62.30
1021;DHT22;499;42.648;23.270;2023-01-28T04:06:07;-0.80;59.60
1021;DHT22;499;42.648;23.270;2023-01-28T04:08:35;-0.60;61.10
1021;DHT22;499;42.648;23.270;2023-01-28T04:11:02;-0.60;62.30
1021;DHT22;499;42.648;23.270;2023-01-28T04:13:40;-0.60;62.40
1021;DHT22;499;42.648;23.270;2023-01-28T04:16:07;-0.70;61.10
1021;DHT22;499;42.648;23.270;2023-01-28T04:18:35;-1.00;60.30
1021;DHT22;499;42.648;23.270;2023-01-28T04:21:03;-1.10;62.20
1021;DHT22;499;42.648;23.270;2023-01-28T04:23:30;-1.00;64.00
1021;DHT22;499;42.648;23.270;2023-01-28T04:25:57;-0.70;63.70
1021;DHT22;499;42.648;23.270;2023-01-28T04:28:25;-1.10;63.50
1021;DHT22;499;42.648;23.270;2023-01-28T04:30:52;-1.10;64.40
1021;DHT22;499;42.648;23.270;2023-01-28T04:33:19;-0.90;65.50
1021;DHT22;499;42.648;23.270;2023-01-28T04:35:46;-0.50;66.60
1021;DHT22;499;42.648;23.270;2023-01-28T04:38:14;-0.80;65.50
1021;DHT22;499;42.648;23.270;2023-01-28T04:40:41;-1.10;62.90
1021;DHT22;499;42.648;23.270;2023-01-28T04:43:08;-0.70;65.80
1021;DHT22;499;42.648;23.270;2023-01-28T04:45:35;-0.90;64.00
1021;DHT22;499;42.648;23.270;2023-01-28T04:48:02;-1.20;64.60
1021;DHT22;499;42.648;23.270;2023-01-28T04:50:29;-1.00;65.40
1021;DHT22;499;42.648;23.270;2023-01-28T04:52:56;-1.00;61.90
1021;DHT22;499;42.648;23.270;2023-01-28T04:55:25;-0.90;64.20
1021;DHT22;499;42.648;23.270;2023-01-28T04:57:52;-0.90;62.90
1021;DHT22;499;42.648;23.270;2023-01-28T05:00:19;-0.60;62.00
1021;DHT22;499;42.648;23.270;2023-01-28T05:02:46;-0.80;60.50
1021;DHT22;499;42.648;23.270;2023-01-28T05:05:14;-0.80;61.10
1021;DHT22;499;42.648;23.270;2023-01-28T05:07:41;-0.80;61.10
1021;DHT22;499;42.648;23.270;2023-01-28T05:10:09;-0.70;60.20
1021;DHT22;499;42.648;23.270;2023-01-28T05:12:37;-0.60;59.70
1021;DHT22;499;42.648;23.270;2023-01-28T05:15:05;-0.60;59.40
1021;DHT22;499;42.648;23.270;2023-01-28T05:17:33;-0.60;57.30
1021;DHT22;499;42.648;23.270;2023-01-28T05:20:00;-0.50;57.50
1021;DHT22;499;42.648;23.270;2023-01-28T05:22:27;-0.70;58.40
1021;DHT22;499;42.648;23.270;2023-01-28T05:24:54;-0.70;58.00
1021;DHT22;499;42.648;23.270;2023-01-28T05:27:22;-0.40;58.40
1021;DHT22;499;42.648;23.270;2023-01-28T05:29:50;-0.80;58.10
1021;DHT22;499;42.648;23.270;2023-01-28T05:32:17;-0.10;60.10
1021;DHT22;499;42.648;23.270;2023-01-28T05:34:44;-0.70;58.30
1021;DHT22;499;42.648;23.270;2023-01-28T05:37:11;-0.50;57.30
1021;DHT22;499;42.648;23.270;2023-01-28T05:39:38;-0.40;57.70
1021;DHT22;499;42.648;23.270;2023-01-28T05:42:05;-0.60;57.40
1021;DHT22;499;42.648;23.270;2023-01-28T05:44:32;-0.80;56.50
1021;DHT22;499;42.648;23.270;2023-01-28T05:47:02;-0.60;58.30
1021;DHT22;499;42.648;23.270;2023-01-28T05:49:29;-0.80;59.50
1021;DHT22;499;42.648;23.270;2023-01-28T05:51:56;-0.50;58.90
1021;DHT22;499;42.648;23.270;2023-01-28T05:54:23;-0.40;59.90
1021;DHT22;499;42.648;23.270;2023-01-28T05:56:50;-0.80;58.20
1021;DHT22;499;42.648;23.270;2023-01-28T05:59:17;-0.90;58.60
1021;DHT22;499;42.648;23.270;2023-01-28T06:01:44;-0.90;59.50
1021;DHT22;499;42.648;23.270;2023-01-28T06:04:12;-0.70;59.60
1021;DHT22;499;42.648;23.270;2023-01-28T06:06:39;-0.80;60.50
1021;DHT22;499;42.648;23.270;2023-01-28T06:09:06;-0.50;59.80
1021;DHT22;499;42.648;23.270;2023-01-28T06:11:33;-1.00;59.80
1021;DHT22;499;42.648;23.270;2023-01-28T06:14:00;-0.90;61.50
1021;DHT22;499;42.648;23.270;2023-01-28T06:16:27;-0.90;61.40
1021;DHT22;499;42.648;23.270;2023-01-28T06:18:54;-0.80;61.10
1021;DHT22;499;42.648;23.270;2023-01-28T06:21:23;-0.60;60.10
1021;DHT22;499;42.648;23.270;2023-01-28T06:23:50;-0.90;60.30
1021;DHT22;499;42.648;23.270;2023-01-28T06:26:17;-0.50;61.30
1021;DHT22;499;42.648;23.270;2023-01-28T06:28:44;-0.70;60.50
1021;DHT22;499;42.648;23.270;2023-01-28T06:31:11;-0.40;59.90
1021;DHT22;499;42.648;23.270;2023-01-28T06:33:39;-0.80;60.60
1021;DHT22;499;42.648;23.270;2023-01-28T06:36:06;-0.80;61.00
1021;DHT22;499;42.648;23.270;2023-01-28T06:38:35;-0.60;61.50
1021;DHT22;499;42.648;23.270;2023-01-28T06:41:02;-0.50;60.80
1021;DHT22;499;42.648;23.270;2023-01-28T06:43:29;-0.50;57.80
1021;DHT22;499;42.648;23.270;2023-01-28T06:45:57;-0.30;57.00
1021;DHT22;499;42.648;23.270;2023-01-28T06:48:25;-0.60;57.60
1021;DHT22;499;42.648;23.270;2023-01-28T06:50:53;-0.70;57.90
1021;DHT22;499;42.648;23.270;2023-01-28T06:53:20;-0.70;57.80
1021;DHT22;499;42.648;23.270;2023-01-28T06:55:49;-0.50;58.90
1021;DHT22;499;42.648;23.270;2023-01-28T06:58:16;-0.60;58.70
1021;DHT22;499;42.648;23.270;2023-01-28T07:00:43;-0.60;57.80
1021;DHT22;499;42.648;23.270;2023-01-28T07:03:10;-0.30;58.70
1021;DHT22;499;42.648;23.270;2023-01-28T07:05:37;-0.50;58.20
1021;DHT22;499;42.648;23.270;2023-01-28T07:08:04;-0.20;58.40
1021;DHT22;499;42.648;23.270;2023-01-28T07:10:31;-0.30;60.00
1021;DHT22;499;42.648;23.270;2023-01-28T07:13:00;0.00;59.60
1021;DHT22;499;42.648;23.270;2023-01-28T07:15:27;-0.40;58.60
1021;DHT22;499;42.648;23.270;2023-01-28T07:17:54;-0.50;57.30
1021;DHT22;499;42.648;23.270;2023-01-28T07:20:21;-0.20;58.00
1021;DHT22;499;42.648;23.270;2023-01-28T07:22:48;-0.60;59.20
1021;DHT22;499;42.648;23.270;2023-01-28T07:25:16;-0.50;59.70
1021;DHT22;499;42.648;23.270;2023-01-28T07:27:47;-0.50;61.10
1021;DHT22;499;42.648;23.270;2023-01-28T07:30:17;-0.10;60.10
1021;DHT22;499;42.648;23.270;2023-01-28T07:32:45;-0.50;56.60
1021;DHT22;499;42.648;23.270;2023-01-28T07:35:13;-0.40;57.20
1021;DHT22;499;42.648;23.270;2023-01-28T07:37:40;-0.60;57.60
1021;DHT22;499;42.648;23.270;2023-01-28T07:40:09;-0.40;57.90
1021;DHT22;499;42.648;23.270;2023-01-28T07:42:39;-0.40;58.00
1021;DHT22;499;42.648;23.270;2023-01-28T07:45:07;-0.20;55.70
1021;DHT22;499;42.648;23.270;2023-01-28T07:47:36;-0.50;57.00
1021;DHT22;499;42.648;23.270;2023-01-28T07:50:04;-0.50;58.80
1021;DHT22;499;42.648;23.270;2023-01-28T07:52:31;-0.40;57.20
1021;DHT22;499;42.648;23.270;2023-01-28T07:55:03;-0.40;56.00
1021;DHT22;499;42.648;23.270;2023-01-28T07:57:30;-0.20;57.10
1021;DHT22;499;42.648;23.270;2023-01-28T07:59:57;0.00;55.10
1021;DHT22;499;42.648;23.270;2023-01-28T08:02:24;0.20;55.90
1021;DHT22;499;42.648;23.270;2023-01-28T08:04:53;0.00;54.00
1021;DHT22;499;42.648;23.270;2023-01-28T08:07:23;0.20;51.70
1021;DHT22;499;42.648;23.270;2023-01-28T08:09:50;0.10;51.60
1021;DHT22;499;42.648;23.270;2023-01-28T08:12:17;0.40;52.10
1021;DHT22;499;42.648;23.270;2023-01-28T08:14:44;0.20;50.30
1021;DHT22;499;42.648;23.270;2023-01-28T08:17:12;0.20;48.90
1021;DHT22;499;42.648;23.270;2023-01-28T08:19:39;0.20;49.40
1021;DHT22;499;42.648;23.270;2023-01-28T08:22:08;0.30;49.40
1021;DHT22;499;42.648;23.270;2023-01-28T08:24:35;0.40;47.80
1021;DHT22;499;42.648;23.270;2023-01-28T08:27:02;0.60;47.10
1021;DHT22;499;42.648;23.270;2023-01-28T08:29:29;0.30;47.40
1021;DHT22;499;42.648;23.270;2023-01-28T08:31:56;0.60;47.60
1021;DHT22;499;42.648;23.270;2023-01-28T08:34:25;0.60;47.60
1021;DHT22;499;42.648;23.270;2023-01-28T08:36:51;0.40;45.90
1021;DHT22;499;42.648;23.270;2023-01-28T08:39:20;0.50;46.50
1021;DHT22;499;42.648;23.270;2023-01-28T08:41:47;0.60;46.20
1021;DHT22;499;42.648;23.270;2023-01-28T08:44:14;0.70;46.20
1021;DHT22;499;42.648;23.270;2023-01-28T08:46:41;0.80;45.30
1021;DHT22;499;42.648;23.270;2023-01-28T08:49:08;0.80;44.00
1021;DHT22;499;42.648;23.270;2023-01-28T08:51:36;0.60;45.30
1021;DHT22;499;42.648;23.270;2023-01-28T08:54:03;0.60;44.10
1021;DHT22;499;42.648;23.270;2023-01-28T08:56:32;0.70;43.10
1021;DHT22;499;42.648;23.270;2023-01-28T08:58:59;1.10;43.40
1021;DHT22;499;42.648;23.270;2023-01-28T09:01:26;0.70;43.20
1021;DHT22;499;42.648;23.270;2023-01-28T09:03:53;0.60;44.20
1021;DHT22;499;42.648;23.270;2023-01-28T09:06:21;0.60;44.80
1021;DHT22;499;42.648;23.270;2023-01-28T09:08:48;0.60;45.40
1021;DHT22;499;42.648;23.270;2023-01-28T09:11:15;1.00;44.90
1021;DHT22;499;42.648;23.270;2023-01-28T09:13:43;0.80;45.90
1021;DHT22;499;42.648;23.270;2023-01-28T09:16:10;0.60;45.40
1021;DHT22;499;42.648;23.270;2023-01-28T09:18:37;0.40;45.60
1021;DHT22;499;42.648;23.270;2023-01-28T09:21:05;0.70;46.60
1021;DHT22;499;42.648;23.270;2023-01-28T09:23:34;0.40;47.40
1021;DHT22;499;42.648;23.270;2023-01-28T09:26:02;0.40;47.40
1021;DHT22;499;42.648;23.270;2023-01-28T09:28:30;0.40;47.60
1021;DHT22;499;42.648;23.270;2023-01-28T09:31:02;0.50;48.20
1021;DHT22;499;42.648;23.270;2023-01-28T09:33:29;0.50;48.40
1021;DHT22;499;42.648;23.270;2023-01-28T09:35:59;0.60;50.70
1021;DHT22;499;42.648;23.270;2023-01-28T09:38:27;0.30;48.90
1021;DHT22;499;42.648;23.270;2023-01-28T09:40:55;0.20;49.40
1021;DHT22;499;42.648;23.270;2023-01-28T09:43:35;0.40;50.60
1021;DHT22;499;42.648;23.270;2023-01-28T09:46:10;0.20;51.70
1021;DHT22;499;42.648;23.270;2023-01-28T09:48:42;0.30;51.80
1021;DHT22;499;42.648;23.270;2023-01-28T09:51:17;0.20;51.70
1021;DHT22;499;42.648;23.270;2023-01-28T09:53:49;0.30;50.60
1021;DHT22;499;42.648;23.270;2023-01-28T09:56:24;0.30;50.70
1021;DHT22;499;42.648;23.270;2023-01-28T09:58:51;0.50;50.30
1021;DHT22;499;42.648;23.270;2023-01-28T10:01:37;0.50;49.00
1021;DHT22;499;42.648;23.270;2023-01-28T10:04:16;0.90;49.50
1021;DHT22;499;42.648;23.270;2023-01-28T10:06:55;0.60;48.70
1021;DHT22;499;42.648;23.270;2023-01-28T10:09:32;0.50;49.50
1021;DHT22;499;42.648;23.270;2023-01-28T10:12:15;0.80;50.20
1021;DHT22;499;42.648;23.270;2023-01-28T10:14:54;0.50;50.20
1021;DHT22;499;42.648;23.270;2023-01-28T10:17:27;0.70;50.20
1021;DHT22;499;42.648;23.270;2023-01-28T10:19:58;0.60;50.10
1021;DHT22;499;42.648;23.270;2023-01-28T10:22:30;0.60;51.40
1021;DHT22;499;42.648;23.270;2023-01-28T10:25:02;0.60;50.10
1021;DHT22;499;42.648;23.270;2023-01-28T10:27:33;1.20;50.30
1021;DHT22;499;42.648;23.270;2023-01-28T10:30:15;0.80;48.50
1021;DHT22;499;42.648;23.270;2023-01-28T10:32:49;0.70;48.00
1021;DHT22;499;42.648;23.270;2023-01-28T10:35:18;0.70;48.90
1021;DHT22;499;42.648;23.270;2023-01-28T10:37:45;0.50;50.30
1021;DHT22;499;42.648;23.270;2023-01-28T10:40:14;0.50;50.80
1021;DHT22;499;42.648;23.270;2023-01-28T10:42:42;0.60;50.40
1021;DHT22;499;42.648;23.270;2023-01-28T10:45:17;0.40;49.80
1021;DHT22;499;42.648;23.270;2023-01-28T10:47:51;0.50;50.90
1021;DHT22;499;42.648;23.270;2023-01-28T10:50:23;0.50;51.50
1021;DHT22;499;42.648;23.270;2023-01-28T10:52:54;0.60;50.70
1021;DHT22;499;42.648;23.270;2023-01-28T10:55:22;0.60;50.90
1021;DHT22;499;42.648;23.270;2023-01-28T10:57:50;0.50;49.80
1021;DHT22;499;42.648;23.270;2023-01-28T11:00:35;0.50;52.20
1021;DHT22;499;42.648;23.270;2023-01-28T11:03:04;0.60;52.00
1021;DHT22;499;42.648;23.270;2023-01-28T11:05:31;0.50;51.00
1021;DHT22;499;42.648;23.270;2023-01-28T11:08:04;0.40;50.80
1021;DHT22;499;42.648;23.270;2023-01-28T11:10:32;0.60;52.00
1021;DHT22;499;42.648;23.270;2023-01-28T11:13:03;0.90;50.50
1021;DHT22;499;42.648;23.270;2023-01-28T11:15:31;0.90;47.80
1021;DHT22;499;42.648;23.270;2023-01-28T11:18:01;1.00;47.40
1021;DHT22;499;42.648;23.270;2023-01-28T11:20:34;1.20;46.60
1021;DHT22;499;42.648;23.270;2023-01-28T11:23:03;1.10;46.80
1021;DHT22;499;42.648;23.270;2023-01-28T11:25:32;1.50;46.30
1021;DHT22;499;42.648;23.270;2023-01-28T11:28:01;1.00;45.30
1021;DHT22;499;42.648;23.270;2023-01-28T11:30:31;1.20;46.00
1021;DHT22;499;42.648;23.270;2023-01-28T11:33:03;1.20;45.10
1021;DHT22;499;42.648;23.270;2023-01-28T11:35:33;1.30;43.70
1021;DHT22;499;42.648;23.270;2023-01-28T11:38:00;1.20;43.50
1021;DHT22;499;42.648;23.270;2023-01-28T11:40:28;1.30;43.60
1021;DHT22;499;42.648;23.270;2023-01-28T11:42:56;1.20;43.50
1021;DHT22;499;42.648;23.270;2023-01-28T11:45:30;1.30;43.70
1021;DHT22;499;42.648;23.270;2023-01-28T11:48:15;1.40;43.70
1021;DHT22;499;42.648;23.270;2023-01-28T11:50:49;1.40;42.50
1021;DHT22;499;42.648;23.270;2023-01-28T11:53:47;1.50;43.70
1021;DHT22;499;42.648;23.270;2023-01-28T11:56:28;1.30;42.80
1021;DHT22;499;42.648;23.270;2023-01-28T11:59:07;1.60;43.80
1021;DHT22;499;42.648;23.270;2023-01-28T12:01:46;1.40;41.50
1021;DHT22;499;42.648;23.270;2023-01-28T12:04:25;1.40;42.20
1021;DHT22;499;42.648;23.270;2023-01-28T12:07:12;1.30;40.30
1021;DHT22;499;42.648;23.270;2023-01-28T12:09:47;1.40;41.30
1021;DHT22;499;42.648;23.270;2023-01-28T12:12:37;1.30;41.80
1021;DHT22;499;42.648;23.270;2023-01-28T12:15:34;1.30;41.30
1021;DHT22;499;42.648;23.270;2023-01-28T12:18:16;1.40;41.40
1021;DHT22;499;42.648;23.270;2023-01-28T12:20:51;1.50;40.70
1021;DHT22;499;42.648;23.270;2023-01-28T12:23:42;1.50;40.70
1021;DHT22;499;42.648;23.270;2023-01-28T12:26:15;1.30;41.20
1021;DHT22;499;42.648;23.270;2023-01-28T12:28:59;1.20;40.10
1021;DHT22;499;42.648;23.270;2023-01-28T12:31:41;1.50;41.70
1021;DHT22;499;42.648;23.270;2023-01-28T12:37:14;1.30;42.30
1021;DHT22;499;42.648;23.270;2023-01-28T12:39:56;1.40;42.60
1021;DHT22;499;42.648;23.270;2023-01-28T12:42:34;1.30;42.90
1021;DHT22;499;42.648;23.270;2023-01-28T12:45:10;1.50;41.70
1021;DHT22;499;42.648;23.270;2023-01-28T12:47:39;1.30;40.80
1021;DHT22;499;42.648;23.270;2023-01-28T12:50:12;1.20;41.00
1021;DHT22;499;42.648;23.270;2023-01-28T12:52:45;1.10;41.20
1021;DHT22;499;42.648;23.270;2023-01-28T12:55:16;1.10;42.30
1021;DHT22;499;42.648;23.270;2023-01-28T12:57:44;1.10;42.60
1021;DHT22;499;42.648;23.270;2023-01-28T13:00:22;1.10;43.40
1021;DHT22;499;42.648;23.270;2023-01-28T13:02:57;0.90;43.30
1021;DHT22;499;42.648;23.270;2023-01-28T13:05:31;1.10;43.40
1021;DHT22;499;42.648;23.270;2023-01-28T13:08:02;0.90;43.30
1021;DHT22;499;42.648;23.270;2023-01-28T13:10:36;1.00;43.90
1021;DHT22;499;42.648;23.270;2023-01-28T13:13:05;1.00;44.30
1021;DHT22;499;42.648;23.270;2023-01-28T13:15:41;1.10;43.40
1021;DHT22;499;42.648;23.270;2023-01-28T13:18:32;1.20;42.70
1021;DHT22;499;42.648;23.270;2023-01-28T13:21:00;1.30;43.60
1021;DHT22;499;42.648;23.270;2023-01-28T13:23:37;1.20;42.20
1021;DHT22;499;42.648;23.270;2023-01-28T13:26:26;1.40;42.00
1021;DHT22;499;42.648;23.270;2023-01-28T13:29:06;1.40;40.60
1021;DHT22;499;42.648;23.270;2023-01-28T13:31:37;1.80;41.70
1021;DHT22;499;42.648;23.270;2023-01-28T13:34:06;1.70;41.70
1021;DHT22;499;42.648;23.270;2023-01-28T13:36:37;1.80;40.60
1021;DHT22;499;42.648;23.270;2023-01-28T13:39:13;1.60;39.10
1021;DHT22;499;42.648;23.270;2023-01-28T13:41:45;1.60;38.70
1021;DHT22;499;42.648;23.270;2023-01-28T13:44:20;1.60;40.00
1021;DHT22;499;42.648;23.270;2023-01-28T13:46:53;1.60;39.30
1021;DHT22;499;42.648;23.270;2023-01-28T13:49:25;1.50;38.60
1021;DHT22;499;42.648;23.270;2023-01-28T13:52:00;1.60;39.30
1021;DHT22;499;42.648;23.270;2023-01-28T13:54:32;1.40;39.10
1021;DHT22;499;42.648;23.270;2023-01-28T13:57:37;1.40;40.30
1021;DHT22;499;42.648;23.270;2023-01-28T14:00:10;1.60;39.30
1021;DHT22;499;42.648;23.270;2023-01-28T14:09:03;1.50;40.80
1021;DHT22;499;42.648;23.270;2023-01-28T14:12:07;1.40;41.50
1021;DHT22;499;42.648;23.270;2023-01-28T14:17:56;1.10;43.40
1021;DHT22;499;42.648;23.270;2023-01-28T14:20:27;1.00;44.80
1021;DHT22;499;42.648;23.270;2023-01-28T14:23:01;0.90;45.80
1021;DHT22;499;42.648;23.270;2023-01-28T14:25:34;0.90;46.10
1021;DHT22;499;42.648;23.270;2023-01-28T14:28:02;0.70;46.00
1021;DHT22;499;42.648;23.270;2023-01-28T14:30:39;0.60;47.00
1021;DHT22;499;42.648;23.270;2023-01-28T14:33:09;0.40;47.40
1021;DHT22;499;42.648;23.270;2023-01-28T14:35:38;0.50;49.10
1021;DHT22;499;42.648;23.270;2023-01-28T14:38:14;0.50;49.30
1021;DHT22;499;42.648;23.270;2023-01-28T14:40:42;0.70;50.10
1021;DHT22;499;42.648;23.270;2023-01-28T14:43:15;0.60;51.30
1021;DHT22;499;42.648;23.270;2023-01-28T14:45:57;0.50;51.90
1021;DHT22;499;42.648;23.270;2023-01-28T14:48:31;0.40;51.30
1021;DHT22;499;42.648;23.270;2023-01-28T14:51:36;0.40;50.90
1021;DHT22;499;42.648;23.270;2023-01-28T14:54:30;0.30;50.50
1021;DHT22;499;42.648;23.270;2023-01-28T14:59:52;0.30;51.80
1021;DHT22;499;42.648;23.270;2023-01-28T15:02:23;0.50;53.20
1021;DHT22;499;42.648;23.270;2023-01-28T15:04:51;0.30;55.10
1021;DHT22;499;42.648;23.270;2023-01-28T15:07:20;0.00;56.00
1021;DHT22;499;42.648;23.270;2023-01-28T15:09:57;0.00;58.30
1021;DHT22;499;42.648;23.270;2023-01-28T15:12:25;0.10;59.20
1021;DHT22;499;42.648;23.270;2023-01-28T15:14:52;0.00;58.50
1021;DHT22;499;42.648;23.270;2023-01-28T15:17:25;0.10;59.20
1021;DHT22;499;42.648;23.270;2023-01-28T15:19:54;0.00;60.20
1021;DHT22;499;42.648;23.270;2023-01-28T15:22:25;-0.10;60.80
1021;DHT22;499;42.648;23.270;2023-01-28T15:24:53;-0.50;62.50
1021;DHT22;499;42.648;23.270;2023-01-28T15:27:27;-0.10;64.40
1021;DHT22;499;42.648;23.270;2023-01-28T15:29:56;0.00;65.00
1021;DHT22;499;42.648;23.270;2023-01-28T15:32:27;0.00;63.40
1021;DHT22;499;42.648;23.270;2023-01-28T15:34:57;0.00;63.70
1021;DHT22;499;42.648;23.270;2023-01-28T15:37:25;0.00;62.80
1021;DHT22;499;42.648;23.270;2023-01-28T15:39:59;0.20;63.50
1021;DHT22;499;42.648;23.270;2023-01-28T15:42:27;0.00;62.90
1021;DHT22;499;42.648;23.270;2023-01-28T15:44:56;0.00;61.90
1021;DHT22;499;42.648;23.270;2023-01-28T15:47:28;0.10;62.40
1021;DHT22;499;42.648;23.270;2023-01-28T15:49:58;0.20;63.20
1021;DHT22;499;42.648;23.270;2023-01-28T15:52:32;0.20;58.90
1021;DHT22;499;42.648;23.270;2023-01-28T15:55:02;0.20;57.60
1021;DHT22;499;42.648;23.270;2023-01-28T15:57:31;0.10;55.10
1021;DHT22;499;42.648;23.270;2023-01-28T16:00:12;-0.20;53.20
1021;DHT22;499;42.648;23.270;2023-01-28T16:02:44;-0.10;51.50
1021;DHT22;499;42.648;23.270;2023-01-28T16:05:25;0.00;51.50
1021;DHT22;499;42.648;23.270;2023-01-28T16:07:53;0.00;51.60
1021;DHT22;499;42.648;23.270;2023-01-28T16:10:23;0.00;51.40
1021;DHT22;499;42.648;23.270;2023-01-28T16:12:52;0.00;51.50
1021;DHT22;499;42.648;23.270;2023-01-28T16:15:20;-0.10;51.40
1021;DHT22;499;42.648;23.270;2023-01-28T16:17:50;-0.20;50.80
1021;DHT22;499;42.648;23.270;2023-01-28T16:20:21;0.00;51.50
1021;DHT22;499;42.648;23.270;2023-01-28T16:22:49;0.00;51.50
1021;DHT22;499;42.648;23.270;2023-01-28T16:25:34;0.00;51.50
1021;DHT22;499;42.648;23.270;2023-01-28T16:28:10;-0.10;51.40
1021;DHT22;499;42.648;23.270;2023-01-28T16:30:39;0.00;51.50
1021;DHT22;499;42.648;23.270;2023-01-28T16:33:16;0.10;51.60
1021;DHT22;499;42.648;23.270;2023-01-28T16:35:45;0.00;49.50
1021;DHT22;499;42.648;23.270;2023-01-28T16:38:12;0.00;50.20
1021;DHT22;499;42.648;23.270;2023-01-28T16:40:42;-0.10;50.60
1021;DHT22;499;42.648;23.270;2023-01-28T16:43:10;0.00;51.50
1021;DHT22;499;42.648;23.270;2023-01-28T16:45:38;0.00;49.70
1021;DHT22;499;42.648;23.270;2023-01-28T16:48:05;0.00;49.30
1021;DHT22;499;42.648;23.270;2023-01-28T16:50:37;0.50;50.20
1021;DHT22;499;42.648;23.270;2023-01-28T16:53:07;0.30;49.10
1021;DHT22;499;42.648;23.270;2023-01-28T16:55:38;0.30;48.90